createdAt,value
2022-12-31T00:00:23.912Z,-9.85
2022-12-31T00:02:54.520Z,-9.51
2022-12-31T00:05:25.204Z,-9.37
2022-12-31T00:07:57.442Z,-9.14
2022-12-31T00:10:27.968Z,-9.15
2022-12-31T00:13:14.940Z,-8.89
2022-12-31T00:15:46.227Z,-8.82
2022-12-31T00:18:18.998Z,-8.69
2022-12-31T00:20:49.491Z,-8.69
2022-12-31T00:23:21.620Z,-8.71
2022-12-31T00:25:52.188Z,-8.45
2022-12-31T00:28:22.843Z,-8.81
2022-12-31T00:30:57.193Z,-8.41
2022-12-31T00:33:44.412Z,-8.25
2022-12-31T00:36:17.025Z,-8.71
2022-12-31T00:38:50.594Z,-7.99
2022-12-31T00:41:23.198Z,-7.84
2022-12-31T00:43:54.123Z,-7.63
2022-12-31T00:46:25.913Z,-7.41
2022-12-31T00:49:13.757Z,-7.47
2022-12-31T00:52:01.289Z,-7.10
2022-12-31T00:54:33.625Z,-7.06
2022-12-31T00:57:04.307Z,-7.05
2022-12-31T00:59:34.928Z,-6.92
2022-12-31T01:02:05.664Z,-6.90
2022-12-31T01:04:40.777Z,-6.77
2022-12-31T01:07:11.513Z,-6.69
2022-12-31T01:09:46.715Z,-6.57
2022-12-31T01:12:23.341Z,-6.59
2022-12-31T01:14:55.726Z,-6.52
2022-12-31T01:17:26.327Z,-6.66
2022-12-31T01:19:59.905Z,-6.35
2022-12-31T01:22:30.357Z,-6.31
2022-12-31T01:25:05.117Z,-6.30
2022-12-31T01:27:35.729Z,-5.78
2022-12-31T01:30:06.953Z,-5.72
2022-12-31T01:32:37.489Z,-5.71
2022-12-31T01:35:08.736Z,-5.51
2022-12-31T01:37:56.013Z,-5.23
2022-12-31T01:40:28.295Z,-5.07
2022-12-31T01:42:58.879Z,-4.87
2022-12-31T01:45:30.014Z,-4.95
2022-12-31T01:48:02.613Z,-4.81
2022-12-31T01:50:36.625Z,-4.70
2022-12-31T01:53:10.199Z,-4.61
2022-12-31T01:55:51.048Z,-4.81
2022-12-31T01:58:25.879Z,-4.51
2022-12-31T02:01:20.192Z,-4.41
2022-12-31T02:04:08.677Z,-4.44
2022-12-31T02:06:43.588Z,-4.06
2022-12-31T02:09:16.871Z,-3.76
2022-12-31T02:11:49.081Z,-3.70
2022-12-31T02:14:23.679Z,-3.62
2022-12-31T02:16:59.362Z,-3.40
2022-12-31T02:19:53.780Z,-3.38
2022-12-31T02:22:39.598Z,-3.17
2022-12-31T02:25:37.599Z,-3.27
2022-12-31T02:28:22.737Z,-2.93
2022-12-31T02:31:16.872Z,-2.86
2022-12-31T02:33:54.576Z,-2.90
2022-12-31T02:36:30.586Z,-3.33
2022-12-31T02:39:05.706Z,-2.97
2022-12-31T02:41:55.356Z,-3.01
2022-12-31T02:44:35.056Z,-3.12
2022-12-31T02:47:23.243Z,-3.06
2022-12-31T02:50:21.364Z,-2.86
2022-12-31T02:53:02.793Z,-2.77
2022-12-31T02:55:42.845Z,-2.61
2022-12-31T02:58:16.371Z,-2.45
2022-12-31T03:01:15.017Z,-2.14
2022-12-31T03:04:10.041Z,-1.85
2022-12-31T03:06:44.883Z,-1.74
2022-12-31T03:09:18.424Z,-2.12
2022-12-31T03:12:10.023Z,-2.63
2022-12-31T03:14:45.626Z,-2.06
2022-12-31T03:17:17.731Z,-2.21
2022-12-31T03:20:26.442Z,-2.33
2022-12-31T03:22:57.346Z,-2.38
2022-12-31T03:25:41.854Z,-2.33
2022-12-31T03:28:13.664Z,-2.27
2022-12-31T03:30:46.252Z,-2.33
2022-12-31T03:33:17.326Z,-2.43
2022-12-31T03:35:54.948Z,-2.28
2022-12-31T03:38:25.933Z,-2.33
2022-12-31T03:40:57.162Z,-2.51
2022-12-31T03:43:28.288Z,-2.49
2022-12-31T03:46:00.651Z,-2.54
2022-12-31T03:48:31.835Z,-2.57
2022-12-31T03:51:07.212Z,-2.50
2022-12-31T03:53:38.461Z,-2.46
2022-12-31T03:56:09.521Z,-2.45
2022-12-31T03:58:40.414Z,-2.42
2022-12-31T04:01:11.323Z,-2.52
2022-12-31T04:03:42.297Z,-2.71
2022-12-31T04:06:15.736Z,-2.37
2022-12-31T04:08:46.391Z,-2.36
2022-12-31T04:11:20.835Z,-2.31
2022-12-31T04:13:51.669Z,-2.17
2022-12-31T04:16:22.741Z,-2.12
2022-12-31T04:18:53.293Z,-2.20
2022-12-31T04:21:30.095Z,-2.42
2022-12-31T04:24:04.056Z,-2.52
2022-12-31T04:26:34.679Z,-2.71
2022-12-31T04:29:05.257Z,-2.77
2022-12-31T04:31:35.813Z,-2.89
2022-12-31T04:34:23.413Z,-3.00
2022-12-31T04:37:12.113Z,-2.93
2022-12-31T04:39:42.640Z,-3.15
2022-12-31T04:42:13.339Z,-3.09
2022-12-31T04:44:44.422Z,-2.98
2022-12-31T04:47:18.767Z,-2.86
2022-12-31T04:49:53.900Z,-2.81
2022-12-31T04:52:26.200Z,-2.84
2022-12-31T04:54:59.375Z,-2.84
2022-12-31T04:57:29.987Z,-2.61
2022-12-31T05:00:00.573Z,-2.62
2022-12-31T05:02:33.715Z,-2.58
2022-12-31T05:05:04.452Z,-2.71
2022-12-31T05:07:54.456Z,-2.67
2022-12-31T05:10:25.570Z,-3.07
2022-12-31T05:13:15.309Z,-2.52
2022-12-31T05:15:46.058Z,-2.62
2022-12-31T05:18:17.238Z,-2.64
2022-12-31T05:20:48.174Z,-2.46
2022-12-31T05:23:21.097Z,-2.44
2022-12-31T05:25:51.883Z,-2.44
2022-12-31T05:28:22.791Z,-2.38
2022-12-31T05:31:11.285Z,-2.64
2022-12-31T05:33:41.909Z,-2.29
2022-12-31T05:36:29.187Z,-2.39
2022-12-31T05:39:01.775Z,-2.24
2022-12-31T05:41:32.247Z,-2.49
2022-12-31T05:44:02.795Z,-2.49
2022-12-31T05:46:33.487Z,-2.46
2022-12-31T05:49:04.172Z,-2.45
2022-12-31T05:51:34.949Z,-2.51
2022-12-31T05:54:07.544Z,-2.51
2022-12-31T05:56:38.165Z,-2.56
2022-12-31T05:59:09.067Z,-2.63
2022-12-31T06:01:39.700Z,-2.87
2022-12-31T06:04:10.144Z,-2.87
2022-12-31T06:06:40.824Z,-3.05
2022-12-31T06:09:29.849Z,-3.04
2022-12-31T06:12:00.446Z,-3.11
2022-12-31T06:14:30.920Z,-3.12
2022-12-31T06:17:01.762Z,-3.10
2022-12-31T06:19:32.955Z,-3.66
2022-12-31T06:22:03.595Z,-3.09
2022-12-31T06:24:35.864Z,-3.10
2022-12-31T06:27:06.385Z,-3.20
2022-12-31T06:29:37.212Z,-3.23
2022-12-31T06:32:13.171Z,-3.20
2022-12-31T06:34:45.693Z,-3.26
2022-12-31T06:37:16.321Z,-3.27
2022-12-31T06:39:48.551Z,-3.29
2022-12-31T06:42:19.133Z,-3.50
2022-12-31T06:44:49.760Z,-3.35
2022-12-31T06:47:20.339Z,-3.47
2022-12-31T06:49:51.026Z,-3.53
2022-12-31T06:52:22.006Z,-3.61
2022-12-31T06:54:55.080Z,-3.74
2022-12-31T06:57:26.172Z,-3.68
2022-12-31T06:59:57.363Z,-4.00
2022-12-31T07:02:41.405Z,-3.80
2022-12-31T07:05:40.111Z,-3.84
2022-12-31T07:08:39.823Z,-3.96
2022-12-31T07:11:21.571Z,-3.77
2022-12-31T07:14:06.883Z,-4.04
2022-12-31T07:16:52.872Z,-4.24
2022-12-31T07:19:36.731Z,-3.78
2022-12-31T07:22:08.243Z,-3.95
2022-12-31T07:24:42.307Z,-3.78
2022-12-31T07:27:43.714Z,-3.71
2022-12-31T07:30:18.131Z,-4.03
2022-12-31T07:33:29.553Z,-3.79
2022-12-31T07:39:08.419Z,-3.90
2022-12-31T07:41:51.389Z,-4.66
2022-12-31T07:44:37.730Z,-4.31
2022-12-31T07:47:16.899Z,-4.22
2022-12-31T07:49:48.161Z,-4.16
2022-12-31T07:52:37.228Z,-4.74
2022-12-31T07:55:08.513Z,-4.24
2022-12-31T07:57:46.089Z,-4.31
2022-12-31T08:00:21.773Z,-4.62
2022-12-31T08:03:31.403Z,-4.53
2022-12-31T08:06:29.528Z,-4.72
2022-12-31T08:09:09.547Z,-4.59
2022-12-31T08:12:03.981Z,-4.71
2022-12-31T08:14:36.966Z,-4.91
2022-12-31T08:17:14.587Z,-4.84
2022-12-31T08:19:46.615Z,-4.87
2022-12-31T08:22:59.253Z,-5.05
2022-12-31T08:25:39.764Z,-5.20
2022-12-31T08:28:34.401Z,-5.52
2022-12-31T08:31:10.038Z,-5.50
2022-12-31T08:33:51.518Z,-5.09
2022-12-31T08:36:49.167Z,-5.11
2022-12-31T08:39:33.760Z,-5.14
2022-12-31T08:42:07.758Z,-5.16
2022-12-31T08:44:50.653Z,-5.38
2022-12-31T08:47:38.267Z,-5.24
2022-12-31T08:50:17.431Z,-5.82
2022-12-31T08:52:49.052Z,-5.14
2022-12-31T08:55:38.686Z,-5.13
2022-12-31T08:58:25.114Z,-5.13
2022-12-31T09:00:59.920Z,-5.16
2022-12-31T09:03:44.833Z,-5.17
2022-12-31T09:06:30.359Z,-5.18
2022-12-31T09:09:24.507Z,-5.46
2022-12-31T09:12:01.570Z,-5.29
2022-12-31T09:14:53.786Z,-5.38
2022-12-31T09:17:49.355Z,-5.34
2022-12-31T09:20:43.842Z,-5.37
2022-12-31T09:23:18.520Z,-5.46
2022-12-31T09:25:58.222Z,-5.37
2022-12-31T09:28:43.704Z,-5.56
2022-12-31T09:31:19.135Z,-5.32
2022-12-31T09:33:57.150Z,-5.57
2022-12-31T09:36:34.763Z,-5.20
2022-12-31T09:39:16.527Z,-5.13
2022-12-31T09:42:15.436Z,-5.10
2022-12-31T09:45:10.028Z,-5.14
2022-12-31T09:48:14.544Z,-5.12
2022-12-31T09:51:25.516Z,-5.14
2022-12-31T09:54:38.870Z,-5.64
2022-12-31T09:57:30.436Z,-5.78
2022-12-31T10:00:06.398Z,-5.27
2022-12-31T10:02:55.216Z,-5.26
2022-12-31T10:05:45.320Z,-5.18
2022-12-31T10:08:22.034Z,-5.02
2022-12-31T10:11:00.211Z,-4.99
2022-12-31T10:13:51.663Z,-4.97
2022-12-31T10:16:47.689Z,-4.72
2022-12-31T10:19:42.319Z,-4.95
2022-12-31T10:22:34.032Z,-5.37
2022-12-31T10:25:38.463Z,-5.04
2022-12-31T10:28:26.540Z,-4.86
2022-12-31T10:31:09.483Z,-5.10
2022-12-31T10:33:47.071Z,-5.25
2022-12-31T10:36:29.826Z,-6.00
2022-12-31T10:39:14.482Z,-5.25
2022-12-31T10:42:20.037Z,-5.26
2022-12-31T10:45:40.876Z,-5.17
2022-12-31T10:48:56.426Z,-5.15
2022-12-31T10:52:03.687Z,-5.12
2022-12-31T10:55:28.789Z,-4.91
2022-12-31T10:58:48.437Z,-4.87
2022-12-31T11:01:27.952Z,-4.93
2022-12-31T11:04:36.054Z,-4.92
2022-12-31T11:07:35.425Z,-5.04
2022-12-31T11:10:49.657Z,-5.03
2022-12-31T11:14:00.537Z,-5.05
2022-12-31T11:16:59.167Z,-5.16
2022-12-31T11:19:41.825Z,-5.25
2022-12-31T11:23:05.845Z,-5.10
2022-12-31T11:25:50.554Z,-5.02
2022-12-31T11:28:45.984Z,-5.08
2022-12-31T11:31:57.120Z,-5.38
2022-12-31T11:34:54.464Z,-5.10
2022-12-31T11:37:39.804Z,-4.90
2022-12-31T11:40:33.977Z,-5.09
2022-12-31T11:43:07.627Z,-5.11
2022-12-31T11:47:01.102Z,-5.06
2022-12-31T11:49:19.106Z,-5.07
2022-12-31T11:52:16.003Z,-5.07
2022-12-31T11:55:21.485Z,-5.40
2022-12-31T12:01:02.018Z,-5.84
2022-12-31T12:03:39.437Z,-5.29
2022-12-31T12:06:13.809Z,-5.20
2022-12-31T12:08:46.837Z,-5.17
2022-12-31T12:11:26.173Z,-5.85
2022-12-31T12:14:18.115Z,-5.11
2022-12-31T12:16:57.855Z,-4.93
2022-12-31T12:19:49.825Z,-4.85
2022-12-31T12:25:39.770Z,-4.72
2022-12-31T12:28:44.419Z,-4.58
2022-12-31T12:31:28.379Z,-4.71
2022-12-31T12:37:35.358Z,-4.91
2022-12-31T12:40:20.337Z,-5.10
2022-12-31T12:43:11.724Z,-5.24
2022-12-31T12:46:01.032Z,-5.39
2022-12-31T12:48:40.427Z,-5.56
2022-12-31T12:51:38.536Z,-5.96
2022-12-31T12:54:27.234Z,-5.81
2022-12-31T12:57:28.508Z,-5.86
2022-12-31T13:00:37.994Z,-6.13
2022-12-31T13:07:08.833Z,-6.90
2022-12-31T13:10:09.911Z,-6.87
2022-12-31T13:13:23.711Z,-6.79
2022-12-31T13:16:26.826Z,-6.86
2022-12-31T13:19:16.521Z,-6.78
2022-12-31T13:22:08.888Z,-6.85
2022-12-31T13:25:09.904Z,-6.98
2022-12-31T13:27:51.873Z,-7.00
2022-12-31T13:31:00.475Z,-7.02
2022-12-31T13:33:56.351Z,-7.33
2022-12-31T13:36:56.789Z,-7.87
2022-12-31T13:39:41.957Z,-7.25
2022-12-31T13:42:20.758Z,-7.41
2022-12-31T13:45:16.280Z,-7.42
2022-12-31T13:47:54.349Z,-7.40
2022-12-31T13:51:11.588Z,-7.34
2022-12-31T13:54:00.223Z,-7.24
2022-12-31T13:56:44.548Z,-7.18
2022-12-31T13:59:50.929Z,-7.20
2022-12-31T14:02:48.660Z,-7.23
2022-12-31T14:05:38.323Z,-7.25
2022-12-31T14:08:16.417Z,-7.46
2022-12-31T14:11:10.839Z,-7.76
2022-12-31T14:14:06.591Z,-7.77
2022-12-31T14:16:57.736Z,-7.78
2022-12-31T14:20:10.306Z,-7.76
2022-12-31T14:23:14.163Z,-7.75
2022-12-31T14:26:05.045Z,-7.74
2022-12-31T14:28:48.790Z,-7.69
2022-12-31T14:31:37.730Z,-7.59
2022-12-31T14:34:25.004Z,-7.62
2022-12-31T14:37:10.820Z,-7.65
2022-12-31T14:40:11.259Z,-7.62
2022-12-31T14:43:13.828Z,-7.67
2022-12-31T14:46:03.571Z,-7.75
2022-12-31T14:48:50.742Z,-7.87
2022-12-31T14:51:31.684Z,-8.05
2022-12-31T14:54:09.758Z,-8.14
2022-12-31T14:56:56.477Z,-8.26
2022-12-31T14:59:40.389Z,-8.53
2022-12-31T15:02:36.694Z,-8.42
2022-12-31T15:05:23.738Z,-8.36
2022-12-31T15:08:16.413Z,-8.44
2022-12-31T15:11:05.961Z,-8.22
2022-12-31T15:14:01.699Z,-8.30
2022-12-31T15:17:10.908Z,-8.59
2022-12-31T15:20:18.676Z,-8.52
2022-12-31T15:22:57.574Z,-8.75
2022-12-31T15:25:44.961Z,-8.87
2022-12-31T15:28:37.690Z,-8.97
2022-12-31T15:31:32.372Z,-9.03
2022-12-31T15:34:53.204Z,-9.10
2022-12-31T15:37:51.413Z,-9.20
2022-12-31T15:40:35.656Z,-9.37
2022-12-31T15:43:32.579Z,-9.55
2022-12-31T15:46:27.801Z,-9.67
2022-12-31T15:49:29.504Z,-10.02
2022-12-31T15:55:58.532Z,-10.08
2022-12-31T15:58:47.202Z,-9.93
2022-12-31T16:01:27.300Z,-9.96
2022-12-31T16:06:58.681Z,-10.27
2022-12-31T16:09:49.160Z,-10.27
2022-12-31T16:12:57.243Z,-10.16
2022-12-31T16:15:37.794Z,-10.24
2022-12-31T16:18:22.842Z,-10.15
2022-12-31T16:21:04.159Z,-10.04
2022-12-31T16:23:42.488Z,-10.02
2022-12-31T16:29:42.617Z,-9.71
2022-12-31T16:32:23.343Z,-9.87
2022-12-31T16:35:23.028Z,-9.96
2022-12-31T16:38:42.130Z,-10.06
2022-12-31T16:44:40.585Z,-10.16
2022-12-31T16:47:39.530Z,-10.05
2022-12-31T16:50:25.215Z,-10.38
2022-12-31T16:53:21.710Z,-10.01
2022-12-31T16:56:48.782Z,-10.23
2022-12-31T16:59:38.157Z,-10.71
2022-12-31T17:05:37.485Z,-10.40
2022-12-31T17:08:34.348Z,-10.17
2022-12-31T17:11:23.961Z,-10.07
2022-12-31T17:14:04.760Z,-10.40
2022-12-31T17:16:43.955Z,-10.18
2022-12-31T17:22:56.395Z,-9.93
2022-12-31T17:25:37.283Z,-9.80
2022-12-31T17:28:25.645Z,-9.59
2022-12-31T17:31:05.772Z,-9.46
2022-12-31T17:33:45.107Z,-9.29
2022-12-31T17:36:50.505Z,-9.28
2022-12-31T17:39:45.021Z,-9.32
2022-12-31T17:42:39.973Z,-9.26
2022-12-31T17:45:24.536Z,-9.73
2022-12-31T17:48:11.818Z,-9.08
2022-12-31T17:51:01.248Z,-8.97
2022-12-31T17:54:02.008Z,-8.84
2022-12-31T17:56:34.864Z,-8.68
2022-12-31T17:59:12.683Z,-8.69
2022-12-31T18:01:53.776Z,-8.49
2022-12-31T18:04:40.083Z,-8.40
2022-12-31T18:07:27.202Z,-8.29
2022-12-31T18:10:05.577Z,-8.17
2022-12-31T18:12:43.505Z,-8.57
2022-12-31T18:15:32.137Z,-7.99
2022-12-31T18:18:10.427Z,-8.02
2022-12-31T18:20:52.916Z,-7.54
2022-12-31T18:23:32.561Z,-7.85
2022-12-31T18:26:11.970Z,-6.93
2022-12-31T18:28:53.994Z,-6.74
2022-12-31T18:31:43.773Z,-6.51
2022-12-31T18:34:21.546Z,-6.42
2022-12-31T18:37:05.702Z,-6.34
2022-12-31T18:39:41.608Z,-6.29
2022-12-31T18:42:43.140Z,-6.54
2022-12-31T18:45:25.679Z,-6.46
2022-12-31T18:48:14.352Z,-6.21
2022-12-31T18:51:01.582Z,-6.11
2022-12-31T18:53:47.240Z,-5.92
2022-12-31T18:56:26.306Z,-6.18
2022-12-31T18:59:19.867Z,-5.73
2022-12-31T19:01:56.355Z,-5.74
2022-12-31T19:04:44.937Z,-5.58
2022-12-31T19:07:25.383Z,-5.53
2022-12-31T19:10:30.456Z,-5.55
2022-12-31T19:13:12.775Z,-5.58
2022-12-31T19:15:50.073Z,-5.37
2022-12-31T19:21:31.171Z,-5.85
2022-12-31T19:24:18.384Z,-5.44
2022-12-31T19:27:01.867Z,-5.44
2022-12-31T19:29:50.626Z,-5.44
2022-12-31T19:32:27.572Z,-5.49
2022-12-31T19:35:07.355Z,-5.37
2022-12-31T19:37:40.167Z,-5.33
2022-12-31T19:40:19.096Z,-5.42
2022-12-31T19:43:00.260Z,-5.28
2022-12-31T19:45:54.374Z,-5.39
2022-12-31T19:48:52.349Z,-5.60
2022-12-31T19:51:29.062Z,-5.32
2022-12-31T19:54:18.404Z,-5.25
2022-12-31T19:56:56.550Z,-5.26
2022-12-31T19:59:47.421Z,-5.38
2022-12-31T20:02:21.890Z,-5.40
2022-12-31T20:08:35.128Z,-5.50
2022-12-31T20:11:14.451Z,-5.33
2022-12-31T20:14:13.419Z,-5.25
2022-12-31T20:17:00.787Z,-5.21
2022-12-31T20:19:36.936Z,-5.20
2022-12-31T20:22:24.720Z,-5.18
2022-12-31T20:25:10.624Z,-5.16
2022-12-31T20:27:54.174Z,-5.35
2022-12-31T20:30:35.704Z,-5.37
2022-12-31T20:33:19.007Z,-5.51
2022-12-31T20:36:23.190Z,-5.65
2022-12-31T20:39:25.337Z,-5.77
2022-12-31T20:42:12.982Z,-6.13
2022-12-31T20:44:59.180Z,-6.08
2022-12-31T20:47:46.891Z,-6.12
2022-12-31T20:50:33.063Z,-6.24
2022-12-31T20:53:18.235Z,-6.27
2022-12-31T20:56:20.929Z,-6.32
2022-12-31T20:59:31.735Z,-6.57
2022-12-31T21:02:21.527Z,-6.49
2022-12-31T21:04:58.187Z,-6.43
2022-12-31T21:07:39.901Z,-6.46
2022-12-31T21:10:32.867Z,-6.56
2022-12-31T21:13:45.996Z,-6.52
2022-12-31T21:16:29.336Z,-6.56
2022-12-31T21:19:11.782Z,-6.70
2022-12-31T21:21:55.888Z,-6.65
2022-12-31T21:24:30.547Z,-6.58
2022-12-31T21:27:05.587Z,-6.59
2022-12-31T21:30:17.827Z,-6.55
2022-12-31T21:33:06.084Z,-6.69
2022-12-31T21:35:53.277Z,-6.74
2022-12-31T21:38:38.391Z,-6.82
2022-12-31T21:41:35.040Z,-6.91
2022-12-31T21:44:10.723Z,-7.01
2022-12-31T21:47:33.149Z,-7.03
2022-12-31T21:49:55.490Z,-7.04
2022-12-31T21:52:47.154Z,-7.17
2022-12-31T21:55:34.304Z,-7.34
2022-12-31T21:58:27.418Z,-7.37
2022-12-31T22:01:40.970Z,-7.51
2022-12-31T22:05:00.230Z,-7.55
2022-12-31T22:10:22.283Z,-7.52
2022-12-31T22:13:15.378Z,-7.49
2022-12-31T22:15:48.208Z,-7.43
2022-12-31T22:18:43.024Z,-7.38
2022-12-31T22:21:24.923Z,-7.39
2022-12-31T22:24:09.385Z,-7.30
2022-12-31T22:26:47.579Z,-7.20
2022-12-31T22:29:48.049Z,-7.23
2022-12-31T22:32:23.866Z,-7.10
2022-12-31T22:35:13.199Z,-7.12
2022-12-31T22:38:18.667Z,-7.20
2022-12-31T22:40:54.415Z,-7.20
2022-12-31T22:43:41.886Z,-7.13
2022-12-31T22:46:37.625Z,-6.83
2022-12-31T22:49:56.809Z,-6.73
2022-12-31T22:52:28.930Z,-7.01
2022-12-31T22:55:13.719Z,-6.67
2022-12-31T22:57:49.692Z,-6.55
2022-12-31T23:03:35.257Z,-6.26
2022-12-31T23:06:26.644Z,-6.31
2022-12-31T23:09:14.570Z,-6.32
2022-12-31T23:11:51.818Z,-6.31
2022-12-31T23:14:42.474Z,-6.14
2022-12-31T23:17:40.109Z,-6.10
2022-12-31T23:20:36.280Z,-5.64
2022-12-31T23:23:16.177Z,-5.55
2022-12-31T23:25:53.005Z,-5.57
2022-12-31T23:31:40.519Z,-5.72
2022-12-31T23:34:34.758Z,-5.81
2022-12-31T23:37:09.758Z,-5.84
2022-12-31T23:39:49.196Z,-5.63
2022-12-31T23:42:24.883Z,-5.53
2022-12-31T23:45:06.541Z,-5.45
2022-12-31T23:47:48.917Z,-5.44
2022-12-31T23:50:27.206Z,-5.34
2022-12-31T23:53:11.239Z,-5.35
2022-12-31T23:55:58.146Z,-5.11
2022-12-31T23:58:36.317Z,-5.34
